sensor_id;sensor_type;location;lat;lon;timestamp;pressure;altitude;pressure_sealevel;temperature;humidity
22000;BME280;11164;48.818;2.322;2023-04-20T00:00:56;100659.63;;;14.93;24.96
22000;BME280;11164;48.818;2.322;2023-04-20T00:03:22;100661.88;;;14.96;24.86
22000;BME280;11164;48.818;2.322;2023-04-20T00:05:47;100654.38;;;14.73;24.98
22000;BME280;11164;48.818;2.322;2023-04-20T00:08:15;100656.38;;;14.41;25.50
22000;BME280;11164;48.818;2.322;2023-04-20T00:10:44;100635.53;;;14.35;25.42
22000;BME280;11164;48.818;2.322;2023-04-20T00:13:10;100650.66;;;14.49;25.32
22000;BME280;11164;48.818;2.322;2023-04-20T00:15:36;100631.31;;;13.95;25.96
22000;BME280;11164;48.818;2.322;2023-04-20T00:18:01;100645.13;;;14.12;25.48
22000;BME280;11164;48.818;2.322;2023-04-20T00:20:27;100645.13;;;14.37;25.33
22000;BME280;11164;48.818;2.322;2023-04-20T00:22:53;100651.94;;;14.21;25.52
22000;BME280;11164;48.818;2.322;2023-04-20T00:25:19;100642.94;;;14.02;25.73
22000;BME280;11164;48.818;2.322;2023-04-20T00:27:44;100639.25;;;14.15;25.50
22000;BME280;11164;48.818;2.322;2023-04-20T00:30:10;100642.25;;;14.07;25.49
22000;BME280;11164;48.818;2.322;2023-04-20T00:32:36;100640.81;;;14.30;25.12
22000;BME280;11164;48.818;2.322;2023-04-20T00:35:01;100639.75;;;14.31;25.24
22000;BME280;11164;48.818;2.322;2023-04-20T00:37:26;100635.13;;;14.13;25.44
22000;BME280;11164;48.818;2.322;2023-04-20T00:39:53;100638.81;;;13.93;25.61
22000;BME280;11164;48.818;2.322;2023-04-20T00:42:19;100630.03;;;14.23;25.25
22000;BME280;11164;48.818;2.322;2023-04-20T00:44:44;100626.97;;;14.38;25.23
22000;BME280;11164;48.818;2.322;2023-04-20T00:47:09;100629.72;;;14.31;25.38
22000;BME280;11164;48.818;2.322;2023-04-20T00:49:35;100612.59;;;14.12;25.61
22000;BME280;11164;48.818;2.322;2023-04-20T00:52:00;100612.28;;;14.02;25.69
22000;BME280;11164;48.818;2.322;2023-04-20T00:54:27;100621.75;;;14.18;25.40
22000;BME280;11164;48.818;2.322;2023-04-20T00:56:53;100617.25;;;14.30;25.41
22000;BME280;11164;48.818;2.322;2023-04-20T00:59:20;100597.50;;;13.98;25.51
22000;BME280;11164;48.818;2.322;2023-04-20T01:01:46;100605.84;;;13.96;25.63
22000;BME280;11164;48.818;2.322;2023-04-20T01:04:12;100609.22;;;13.92;25.86
22000;BME280;11164;48.818;2.322;2023-04-20T01:06:37;100609.97;;;14.05;25.49
22000;BME280;11164;48.818;2.322;2023-04-20T01:09:02;100609.00;;;13.93;25.68
22000;BME280;11164;48.818;2.322;2023-04-20T01:11:28;100615.06;;;14.14;25.55
22000;BME280;11164;48.818;2.322;2023-04-20T01:13:53;100603.13;;;14.21;25.49
22000;BME280;11164;48.818;2.322;2023-04-20T01:16:18;100600.47;;;14.15;25.39
22000;BME280;11164;48.818;2.322;2023-04-20T01:18:46;100597.31;;;13.93;25.62
22000;BME280;11164;48.818;2.322;2023-04-20T01:21:13;100597.09;;;13.94;25.88
22000;BME280;11164;48.818;2.322;2023-04-20T01:23:39;100599.34;;;14.04;25.54
22000;BME280;11164;48.818;2.322;2023-04-20T01:26:08;100598.59;;;13.90;25.79
22000;BME280;11164;48.818;2.322;2023-04-20T01:28:34;100601.50;;;13.57;26.17
22000;BME280;11164;48.818;2.322;2023-04-20T01:31:01;100593.38;;;13.57;26.14
22000;BME280;11164;48.818;2.322;2023-04-20T01:33:27;100590.25;;;13.60;26.06
22000;BME280;11164;48.818;2.322;2023-04-20T01:35:52;100587.69;;;13.65;25.90
22000;BME280;11164;48.818;2.322;2023-04-20T01:38:18;100581.38;;;13.78;25.87
22000;BME280;11164;48.818;2.322;2023-04-20T01:40:44;100574.28;;;13.52;26.01
22000;BME280;11164;48.818;2.322;2023-04-20T01:43:09;100574.69;;;13.48;26.05
22000;BME280;11164;48.818;2.322;2023-04-20T01:45:35;100583.31;;;13.32;26.31
22000;BME280;11164;48.818;2.322;2023-04-20T01:48:00;100573.84;;;13.16;26.62
22000;BME280;11164;48.818;2.322;2023-04-20T01:50:26;100579.25;;;13.16;26.54
22000;BME280;11164;48.818;2.322;2023-04-20T01:52:51;100573.63;;;13.18;26.36
22000;BME280;11164;48.818;2.322;2023-04-20T01:55:16;100581.25;;;12.89;26.89
22000;BME280;11164;48.818;2.322;2023-04-20T01:57:41;100573.03;;;13.09;26.60
22000;BME280;11164;48.818;2.322;2023-04-20T02:00:09;100570.16;;;13.04;26.60
22000;BME280;11164;48.818;2.322;2023-04-20T02:02:35;100574.81;;;12.76;27.06
22000;BME280;11164;48.818;2.322;2023-04-20T02:05:00;100570.19;;;12.97;26.67
22000;BME280;11164;48.818;2.322;2023-04-20T02:07:26;100580.59;;;12.93;26.78
22000;BME280;11164;48.818;2.322;2023-04-20T02:09:51;100574.00;;;12.76;27.09
22000;BME280;11164;48.818;2.322;2023-04-20T02:12:16;100559.28;;;12.59;27.23
22000;BME280;11164;48.818;2.322;2023-04-20T02:14:42;100565.88;;;12.76;26.94
22000;BME280;11164;48.818;2.322;2023-04-20T02:17:07;100582.88;;;12.05;27.99
22000;BME280;11164;48.818;2.322;2023-04-20T02:19:32;100577.88;;;12.08;27.90
22000;BME280;11164;48.818;2.322;2023-04-20T02:21:58;100584.25;;;12.47;27.21
22000;BME280;11164;48.818;2.322;2023-04-20T02:24:23;100581.59;;;12.34;27.53
22000;BME280;11164;48.818;2.322;2023-04-20T02:26:48;100585.72;;;12.50;27.45
22000;BME280;11164;48.818;2.322;2023-04-20T02:29:14;100579.94;;;12.26;27.68
22000;BME280;11164;48.818;2.322;2023-04-20T02:31:40;100582.00;;;12.24;27.81
22000;BME280;11164;48.818;2.322;2023-04-20T02:34:05;100584.09;;;12.29;27.64
22000;BME280;11164;48.818;2.322;2023-04-20T02:36:33;100581.81;;;12.32;27.54
22000;BME280;11164;48.818;2.322;2023-04-20T02:38:59;100588.47;;;12.23;27.69
22000;BME280;11164;48.818;2.322;2023-04-20T02:41:24;100579.31;;;12.11;27.95
22000;BME280;11164;48.818;2.322;2023-04-20T02:43:50;100589.50;;;12.29;27.61
22000;BME280;11164;48.818;2.322;2023-04-20T02:46:16;100586.19;;;12.00;27.86
22000;BME280;11164;48.818;2.322;2023-04-20T02:48:42;100582.88;;;12.18;28.01
22000;BME280;11164;48.818;2.322;2023-04-20T02:51:07;100592.63;;;12.32;27.37
22000;BME280;11164;48.818;2.322;2023-04-20T02:53:33;100597.16;;;12.38;27.52
22000;BME280;11164;48.818;2.322;2023-04-20T02:55:58;100590.16;;;11.97;27.99
22000;BME280;11164;48.818;2.322;2023-04-20T02:58:24;100588.69;;;12.02;27.79
22000;BME280;11164;48.818;2.322;2023-04-20T03:00:49;100587.84;;;12.28;27.39
22000;BME280;11164;48.818;2.322;2023-04-20T03:03:15;100581.63;;;11.94;27.81
22000;BME280;11164;48.818;2.322;2023-04-20T03:05:40;100588.06;;;11.86;28.11
22000;BME280;11164;48.818;2.322;2023-04-20T03:08:05;100594.50;;;12.18;27.68
22000;BME280;11164;48.818;2.322;2023-04-20T03:10:31;100591.78;;;12.32;27.33
22000;BME280;11164;48.818;2.322;2023-04-20T03:12:57;100594.88;;;12.42;27.29
22000;BME280;11164;48.818;2.322;2023-04-20T03:15:22;100588.28;;;12.18;27.58
22000;BME280;11164;48.818;2.322;2023-04-20T03:17:48;100595.31;;;12.19;27.68
22000;BME280;11164;48.818;2.322;2023-04-20T03:20:13;100603.63;;;12.37;27.42
22000;BME280;11164;48.818;2.322;2023-04-20T03:22:39;100599.91;;;12.32;27.41
22000;BME280;11164;48.818;2.322;2023-04-20T03:25:04;100597.81;;;12.27;27.51
22000;BME280;11164;48.818;2.322;2023-04-20T03:27:30;100594.06;;;12.28;27.39
22000;BME280;11164;48.818;2.322;2023-04-20T03:29:55;100599.91;;;12.18;27.74
22000;BME280;11164;48.818;2.322;2023-04-20T03:32:21;100598.03;;;12.06;27.77
22000;BME280;11164;48.818;2.322;2023-04-20T03:34:46;100598.47;;;12.09;27.88
22000;BME280;11164;48.818;2.322;2023-04-20T03:37:13;100592.63;;;12.06;27.60
22000;BME280;11164;48.818;2.322;2023-04-20T03:39:38;100586.00;;;12.22;27.36
22000;BME280;11164;48.818;2.322;2023-04-20T03:42:03;100581.81;;;12.19;27.51
22000;BME280;11164;48.818;2.322;2023-04-20T03:44:30;100583.84;;;12.44;27.26
22000;BME280;11164;48.818;2.322;2023-04-20T03:46:55;100576.31;;;12.59;26.86
22000;BME280;11164;48.818;2.322;2023-04-20T03:49:22;100587.94;;;12.66;26.90
22000;BME280;11164;48.818;2.322;2023-04-20T03:51:48;100571.59;;;12.48;27.08
22000;BME280;11164;48.818;2.322;2023-04-20T03:54:13;100580.34;;;12.30;27.38
22000;BME280;11164;48.818;2.322;2023-04-20T03:56:38;100576.81;;;12.16;27.45
22000;BME280;11164;48.818;2.322;2023-04-20T03:59:03;100588.69;;;12.15;27.44
22000;BME280;11164;48.818;2.322;2023-04-20T04:01:29;100596.59;;;12.16;27.48
22000;BME280;11164;48.818;2.322;2023-04-20T04:03:55;100594.50;;;11.92;27.67
22000;BME280;11164;48.818;2.322;2023-04-20T04:06:21;100588.28;;;11.78;27.84
22000;BME280;11164;48.818;2.322;2023-04-20T04:08:46;100595.97;;;11.88;27.77
22000;BME280;11164;48.818;2.322;2023-04-20T04:11:12;100597.22;;;11.85;27.83
22000;BME280;11164;48.818;2.322;2023-04-20T04:13:37;100594.47;;;11.65;27.98
22000;BME280;11164;48.818;2.322;2023-04-20T04:16:02;100596.59;;;11.76;27.69
22000;BME280;11164;48.818;2.322;2023-04-20T04:18:30;100607.56;;;11.68;27.85
22000;BME280;11164;48.818;2.322;2023-04-20T04:20:57;100613.72;;;11.35;28.39
22000;BME280;11164;48.818;2.322;2023-04-20T04:23:22;100610.63;;;11.45;28.15
22000;BME280;11164;48.818;2.322;2023-04-20T04:25:48;100611.47;;;11.46;28.25
22000;BME280;11164;48.818;2.322;2023-04-20T04:28:13;100616.03;;;11.45;28.20
22000;BME280;11164;48.818;2.322;2023-04-20T04:30:39;100609.66;;;11.73;27.54
22000;BME280;11164;48.818;2.322;2023-04-20T04:33:04;100617.97;;;11.85;27.39
22000;BME280;11164;48.818;2.322;2023-04-20T04:35:30;100622.22;;;11.32;28.13
22000;BME280;11164;48.818;2.322;2023-04-20T04:37:56;100617.78;;;10.69;29.13
22000;BME280;11164;48.818;2.322;2023-04-20T04:40:21;100616.47;;;10.94;28.63
22000;BME280;11164;48.818;2.322;2023-04-20T04:42:47;100618.50;;;10.50;29.28
22000;BME280;11164;48.818;2.322;2023-04-20T04:45:13;100617.44;;;10.51;29.13
22000;BME280;11164;48.818;2.322;2023-04-20T04:47:38;100620.66;;;11.03;28.31
22000;BME280;11164;48.818;2.322;2023-04-20T04:50:06;100628.72;;;10.90;28.53
22000;BME280;11164;48.818;2.322;2023-04-20T04:52:33;100630.50;;;11.17;28.16
22000;BME280;11164;48.818;2.322;2023-04-20T04:54:58;100628.78;;;11.10;28.15
22000;BME280;11164;48.818;2.322;2023-04-20T04:57:24;100624.13;;;10.90;28.52
22000;BME280;11164;48.818;2.322;2023-04-20T04:59:50;100627.13;;;11.15;28.15
22000;BME280;11164;48.818;2.322;2023-04-20T05:02:16;100636.00;;;11.02;28.31
22000;BME280;11164;48.818;2.322;2023-04-20T05:04:41;100640.03;;;10.78;28.57
22000;BME280;11164;48.818;2.322;2023-04-20T05:07:07;100640.97;;;10.99;28.39
22000;BME280;11164;48.818;2.322;2023-04-20T05:09:35;100649.56;;;11.16;28.11
22000;BME280;11164;48.818;2.322;2023-04-20T05:12:00;100646.03;;;10.74;28.59
22000;BME280;11164;48.818;2.322;2023-04-20T05:14:27;100656.50;;;10.90;28.32
22000;BME280;11164;48.818;2.322;2023-04-20T05:16:52;100638.78;;;10.74;28.50
22000;BME280;11164;48.818;2.322;2023-04-20T05:19:17;100649.38;;;10.76;28.45
22000;BME280;11164;48.818;2.322;2023-04-20T05:21:43;100637.59;;;10.83;28.51
22000;BME280;11164;48.818;2.322;2023-04-20T05:24:08;100645.16;;;10.66;28.58
22000;BME280;11164;48.818;2.322;2023-04-20T05:26:34;100656.66;;;11.23;27.85
22000;BME280;11164;48.818;2.322;2023-04-20T05:28:59;100653.41;;;10.93;28.44
22000;BME280;11164;48.818;2.322;2023-04-20T05:31:25;100650.81;;;11.20;27.94
22000;BME280;11164;48.818;2.322;2023-04-20T05:33:51;100655.16;;;11.14;27.93
22000;BME280;11164;48.818;2.322;2023-04-20T05:36:16;100653.66;;;10.98;28.19
22000;BME280;11164;48.818;2.322;2023-04-20T05:38:42;100660.44;;;11.36;27.67
22000;BME280;11164;48.818;2.322;2023-04-20T05:41:07;100656.94;;;10.94;28.54
22000;BME280;11164;48.818;2.322;2023-04-20T05:43:32;100649.34;;;10.69;28.48
22000;BME280;11164;48.818;2.322;2023-04-20T05:45:58;100647.69;;;10.75;28.81
22000;BME280;11164;48.818;2.322;2023-04-20T05:48:23;100646.34;;;10.92;28.37
22000;BME280;11164;48.818;2.322;2023-04-20T05:50:51;100656.41;;;10.77;28.64
22000;BME280;11164;48.818;2.322;2023-04-20T05:53:17;100667.09;;;11.33;27.88
22000;BME280;11164;48.818;2.322;2023-04-20T05:55:42;100639.03;;;10.79;28.18
22000;BME280;11164;48.818;2.322;2023-04-20T05:58:08;100660.44;;;11.36;27.82
22000;BME280;11164;48.818;2.322;2023-04-20T06:00:33;100646.59;;;11.66;27.57
22000;BME280;11164;48.818;2.322;2023-04-20T06:02:58;100657.56;;;11.44;27.76
22000;BME280;11164;48.818;2.322;2023-04-20T06:05:23;100655.31;;;11.54;27.56
22000;BME280;11164;48.818;2.322;2023-04-20T06:07:49;100652.25;;;11.77;27.17
22000;BME280;11164;48.818;2.322;2023-04-20T06:10:14;100654.16;;;11.77;27.18
22000;BME280;11164;48.818;2.322;2023-04-20T06:12:40;100651.88;;;11.94;27.11
22000;BME280;11164;48.818;2.322;2023-04-20T06:15:05;100656.03;;;11.96;27.13
22000;BME280;11164;48.818;2.322;2023-04-20T06:17:36;100648.50;;;11.72;26.87
22000;BME280;11164;48.818;2.322;2023-04-20T06:20:08;100647.34;;;11.39;27.64
22000;BME280;11164;48.818;2.322;2023-04-20T06:22:34;100657.13;;;11.40;27.93
22000;BME280;11164;48.818;2.322;2023-04-20T06:24:59;100649.28;;;11.66;27.46
22000;BME280;11164;48.818;2.322;2023-04-20T06:27:25;100650.19;;;11.86;27.25
22000;BME280;11164;48.818;2.322;2023-04-20T06:29:50;100659.09;;;11.73;27.23
22000;BME280;11164;48.818;2.322;2023-04-20T06:32:16;100645.50;;;11.40;27.58
22000;BME280;11164;48.818;2.322;2023-04-20T06:34:41;100653.31;;;11.83;27.25
22000;BME280;11164;48.818;2.322;2023-04-20T06:37:08;100657.91;;;12.36;26.59
22000;BME280;11164;48.818;2.322;2023-04-20T06:39:33;100662.47;;;12.02;26.62
22000;BME280;11164;48.818;2.322;2023-04-20T06:41:59;100663.94;;;12.05;26.91
22000;BME280;11164;48.818;2.322;2023-04-20T06:44:25;100663.53;;;12.08;27.00
22000;BME280;11164;48.818;2.322;2023-04-20T06:46:50;100664.16;;;12.50;26.42
22000;BME280;11164;48.818;2.322;2023-04-20T06:49:16;100665.16;;;12.75;26.17
22000;BME280;11164;48.818;2.322;2023-04-20T06:51:41;100652.72;;;12.54;26.50
22000;BME280;11164;48.818;2.322;2023-04-20T06:54:07;100658.94;;;12.62;26.52
22000;BME280;11164;48.818;2.322;2023-04-20T06:56:32;100656.66;;;12.45;26.82
22000;BME280;11164;48.818;2.322;2023-04-20T06:58:58;100659.28;;;12.79;26.33
22000;BME280;11164;48.818;2.322;2023-04-20T07:01:23;100658.19;;;13.13;25.86
22000;BME280;11164;48.818;2.322;2023-04-20T07:03:48;100662.56;;;13.14;25.96
22000;BME280;11164;48.818;2.322;2023-04-20T07:06:14;100646.25;;;12.42;26.76
22000;BME280;11164;48.818;2.322;2023-04-20T07:08:41;100656.41;;;12.87;26.36
22000;BME280;11164;48.818;2.322;2023-04-20T07:11:06;100658.53;;;12.45;26.70
22000;BME280;11164;48.818;2.322;2023-04-20T07:13:31;100659.38;;;12.25;27.01
22000;BME280;11164;48.818;2.322;2023-04-20T07:15:57;100651.66;;;12.55;26.53
22000;BME280;11164;48.818;2.322;2023-04-20T07:18:22;100662.06;;;12.52;26.63
22000;BME280;11164;48.818;2.322;2023-04-20T07:20:48;100649.59;;;12.24;26.76
22000;BME280;11164;48.818;2.322;2023-04-20T07:23:13;100668.69;;;12.63;26.43
22000;BME280;11164;48.818;2.322;2023-04-20T07:25:38;100658.34;;;11.99;27.09
22000;BME280;11164;48.818;2.322;2023-04-20T07:28:04;100662.03;;;12.72;26.35
22000;BME280;11164;48.818;2.322;2023-04-20T07:30:29;100646.16;;;13.47;25.45
22000;BME280;11164;48.818;2.322;2023-04-20T07:32:56;100649.69;;;13.48;25.50
22000;BME280;11164;48.818;2.322;2023-04-20T07:35:21;100657.22;;;12.81;26.46
22000;BME280;11164;48.818;2.322;2023-04-20T07:37:47;100661.38;;;12.83;26.52
22000;BME280;11164;48.818;2.322;2023-04-20T07:40:12;100652.09;;;13.31;26.16
22000;BME280;11164;48.818;2.322;2023-04-20T07:42:38;100651.22;;;13.37;25.94
22000;BME280;11164;48.818;2.322;2023-04-20T07:45:04;100649.00;;;13.21;26.21
22000;BME280;11164;48.818;2.322;2023-04-20T07:47:30;100651.91;;;13.26;25.98
22000;BME280;11164;48.818;2.322;2023-04-20T07:49:55;100641.53;;;13.55;25.93
22000;BME280;11164;48.818;2.322;2023-04-20T07:52:22;100652.81;;;13.52;25.81
22000;BME280;11164;48.818;2.322;2023-04-20T07:54:47;100654.09;;;13.42;25.96
22000;BME280;11164;48.818;2.322;2023-04-20T07:57:13;100650.31;;;14.14;25.42
22000;BME280;11164;48.818;2.322;2023-04-20T07:59:39;100639.88;;;13.92;25.70
22000;BME280;11164;48.818;2.322;2023-04-20T08:02:05;100633.72;;;13.72;25.99
22000;BME280;11164;48.818;2.322;2023-04-20T08:04:31;100628.63;;;13.88;25.90
22000;BME280;11164;48.818;2.322;2023-04-20T08:06:57;100638.94;;;14.30;25.41
22000;BME280;11164;48.818;2.322;2023-04-20T08:09:22;100643.31;;;14.75;25.02
22000;BME280;11164;48.818;2.322;2023-04-20T08:11:48;100644.75;;;14.34;25.31
22000;BME280;11164;48.818;2.322;2023-04-20T08:14:14;100645.63;;;14.28;25.40
22000;BME280;11164;48.818;2.322;2023-04-20T08:16:39;100642.44;;;14.99;24.83
22000;BME280;11164;48.818;2.322;2023-04-20T08:19:05;100642.59;;;15.05;24.85
22000;BME280;11164;48.818;2.322;2023-04-20T08:21:38;100629.72;;;14.56;24.76
22000;BME280;11164;48.818;2.322;2023-04-20T08:24:04;100639.38;;;14.27;25.54
22000;BME280;11164;48.818;2.322;2023-04-20T08:26:30;100615.22;;;13.62;26.32
22000;BME280;11164;48.818;2.322;2023-04-20T08:28:56;100616.16;;;14.13;25.79
22000;BME280;11164;48.818;2.322;2023-04-20T08:31:21;100617.06;;;15.06;24.71
22000;BME280;11164;48.818;2.322;2023-04-20T08:33:46;100616.16;;;15.12;24.74
22000;BME280;11164;48.818;2.322;2023-04-20T08:36:12;100613.97;;;15.21;24.50
22000;BME280;11164;48.818;2.322;2023-04-20T08:38:37;100607.59;;;14.96;24.86
22000;BME280;11164;48.818;2.322;2023-04-20T08:41:02;100619.34;;;15.09;24.79
22000;BME280;11164;48.818;2.322;2023-04-20T08:43:28;100615.44;;;14.86;25.07
22000;BME280;11164;48.818;2.322;2023-04-20T08:45:56;100612.97;;;14.78;24.66
22000;BME280;11164;48.818;2.322;2023-04-20T08:48:24;100609.13;;;14.67;25.26
22000;BME280;11164;48.818;2.322;2023-04-20T08:50:49;100612.63;;;14.56;25.13
22000;BME280;11164;48.818;2.322;2023-04-20T08:53:15;100612.84;;;15.10;24.49
22000;BME280;11164;48.818;2.322;2023-04-20T08:55:41;100607.72;;;15.20;24.43
22000;BME280;11164;48.818;2.322;2023-04-20T08:58:06;100611.75;;;14.55;25.13
22000;BME280;11164;48.818;2.322;2023-04-20T09:00:31;100603.41;;;14.75;24.94
22000;BME280;11164;48.818;2.322;2023-04-20T09:02:57;100599.88;;;14.93;24.60
22000;BME280;11164;48.818;2.322;2023-04-20T09:05:25;100595.91;;;15.26;23.97
22000;BME280;11164;48.818;2.322;2023-04-20T09:07:53;100595.84;;;15.14;24.22
22000;BME280;11164;48.818;2.322;2023-04-20T09:10:20;100590.47;;;15.56;24.02
22000;BME280;11164;48.818;2.322;2023-04-20T09:12:48;100594.00;;;15.75;23.72
22000;BME280;11164;48.818;2.322;2023-04-20T09:15:24;100581.66;;;15.73;22.43
22000;BME280;11164;48.818;2.322;2023-04-20T09:17:49;100580.25;;;15.82;23.60
22000;BME280;11164;48.818;2.322;2023-04-20T09:20:15;100574.13;;;15.87;23.53
22000;BME280;11164;48.818;2.322;2023-04-20T09:22:40;100583.59;;;15.96;23.64
22000;BME280;11164;48.818;2.322;2023-04-20T09:25:15;100543.97;;;15.77;21.23
22000;BME280;11164;48.818;2.322;2023-04-20T09:27:41;100568.59;;;16.05;23.43
22000;BME280;11164;48.818;2.322;2023-04-20T09:30:07;100553.72;;;15.54;23.43
22000;BME280;11164;48.818;2.322;2023-04-20T09:32:33;100553.75;;;15.24;23.90
22000;BME280;11164;48.818;2.322;2023-04-20T09:34:59;100550.91;;;14.81;24.60
22000;BME280;11164;48.818;2.322;2023-04-20T09:37:25;100562.06;;;15.41;23.53
22000;BME280;11164;48.818;2.322;2023-04-20T09:39:54;100551.09;;;15.47;23.28
22000;BME280;11164;48.818;2.322;2023-04-20T09:42:26;100552.84;;;15.96;21.93
22000;BME280;11164;48.818;2.322;2023-04-20T09:44:52;100556.66;;;16.42;22.85
22000;BME280;11164;48.818;2.322;2023-04-20T09:47:18;100542.47;;;16.28;22.73
22000;BME280;11164;48.818;2.322;2023-04-20T09:49:46;100554.50;;;16.20;22.42
22000;BME280;11164;48.818;2.322;2023-04-20T09:52:15;100528.22;;;16.49;21.10
22000;BME280;11164;48.818;2.322;2023-04-20T09:54:42;100528.38;;;14.81;24.26
22000;BME280;11164;48.818;2.322;2023-04-20T09:57:08;100533.13;;;15.88;23.01
22000;BME280;11164;48.818;2.322;2023-04-20T09:59:34;100522.88;;;16.55;22.28
22000;BME280;11164;48.818;2.322;2023-04-20T10:01:59;100529.81;;;15.74;23.12
22000;BME280;11164;48.818;2.322;2023-04-20T10:04:25;100520.34;;;15.89;23.02
22000;BME280;11164;48.818;2.322;2023-04-20T10:06:52;100529.03;;;16.50;22.25
22000;BME280;11164;48.818;2.322;2023-04-20T10:09:23;100525.03;;;16.64;22.19
22000;BME280;11164;48.818;2.322;2023-04-20T10:11:51;100525.47;;;16.73;22.41
22000;BME280;11164;48.818;2.322;2023-04-20T10:14:23;100520.63;;;16.75;22.15
22000;BME280;11164;48.818;2.322;2023-04-20T10:17:06;100515.19;;;16.63;22.45
22000;BME280;11164;48.818;2.322;2023-04-20T10:22:01;100524.94;;;16.24;23.49
22000;BME280;11164;48.818;2.322;2023-04-20T10:24:28;100514.38;;;15.68;23.92
22000;BME280;11164;48.818;2.322;2023-04-20T10:26:54;100512.66;;;15.98;23.38
22000;BME280;11164;48.818;2.322;2023-04-20T10:29:23;100507.53;;;16.48;22.94
22000;BME280;11164;48.818;2.322;2023-04-20T10:31:51;100520.00;;;15.97;23.72
22000;BME280;11164;48.818;2.322;2023-04-20T10:34:28;100510.16;;;15.96;23.31
22000;BME280;11164;48.818;2.322;2023-04-20T10:36:53;100504.38;;;16.04;23.56
22000;BME280;11164;48.818;2.322;2023-04-20T10:39:19;100505.75;;;15.60;24.01
22000;BME280;11164;48.818;2.322;2023-04-20T10:41:55;100501.28;;;15.11;23.90
22000;BME280;11164;48.818;2.322;2023-04-20T10:44:26;100495.94;;;15.05;24.31
22000;BME280;11164;48.818;2.322;2023-04-20T10:46:53;100492.50;;;15.40;23.89
22000;BME280;11164;48.818;2.322;2023-04-20T10:49:19;100497.78;;;15.88;23.60
22000;BME280;11164;48.818;2.322;2023-04-20T10:51:50;100487.69;;;14.62;24.75
22000;BME280;11164;48.818;2.322;2023-04-20T10:54:16;100494.13;;;14.68;24.74
22000;BME280;11164;48.818;2.322;2023-04-20T10:56:43;100488.78;;;14.43;24.94
22000;BME280;11164;48.818;2.322;2023-04-20T10:59:11;100493.09;;;14.99;24.45
22000;BME280;11164;48.818;2.322;2023-04-20T11:01:38;100487.97;;;15.33;24.30
22000;BME280;11164;48.818;2.322;2023-04-20T11:04:05;100474.22;;;15.05;24.41
22000;BME280;11164;48.818;2.322;2023-04-20T11:06:33;100475.03;;;15.05;24.34
22000;BME280;11164;48.818;2.322;2023-04-20T11:08:59;100480.78;;;14.97;24.70
22000;BME280;11164;48.818;2.322;2023-04-20T11:11:26;100484.59;;;14.77;24.91
22000;BME280;11164;48.818;2.322;2023-04-20T11:14:04;100470.59;;;13.63;26.46
22000;BME280;11164;48.818;2.322;2023-04-20T11:16:31;100482.19;;;13.52;26.22
22000;BME280;11164;48.818;2.322;2023-04-20T11:18:56;100480.88;;;14.04;25.64
22000;BME280;11164;48.818;2.322;2023-04-20T11:21:22;100464.50;;;14.30;25.46
22000;BME280;11164;48.818;2.322;2023-04-20T11:23:48;100487.28;;;14.47;25.15
22000;BME280;11164;48.818;2.322;2023-04-20T11:26:14;100471.06;;;15.19;24.58
22000;BME280;11164;48.818;2.322;2023-04-20T11:28:53;100464.28;;;14.98;24.68
22000;BME280;11164;48.818;2.322;2023-04-20T11:31:19;100463.22;;;14.99;24.95
22000;BME280;11164;48.818;2.322;2023-04-20T11:33:45;100461.47;;;15.05;24.85
22000;BME280;11164;48.818;2.322;2023-04-20T11:36:21;100449.34;;;14.59;25.15
22000;BME280;11164;48.818;2.322;2023-04-20T11:38:47;100459.09;;;14.30;25.57
22000;BME280;11164;48.818;2.322;2023-04-20T11:41:13;100470.09;;;14.16;25.71
22000;BME280;11164;48.818;2.322;2023-04-20T11:43:38;100462.91;;;13.85;26.16
22000;BME280;11164;48.818;2.322;2023-04-20T11:46:12;100465.47;;;13.98;25.84
22000;BME280;11164;48.818;2.322;2023-04-20T11:48:38;100468.81;;;13.75;25.93
22000;BME280;11164;48.818;2.322;2023-04-20T11:51:03;100467.69;;;14.08;25.74
22000;BME280;11164;48.818;2.322;2023-04-20T11:53:29;100459.25;;;14.16;25.59
22000;BME280;11164;48.818;2.322;2023-04-20T11:55:54;100448.19;;;14.18;25.55
22000;BME280;11164;48.818;2.322;2023-04-20T11:58:20;100454.75;;;14.29;25.48
22000;BME280;11164;48.818;2.322;2023-04-20T12:00:45;100460.25;;;14.89;24.96
22000;BME280;11164;48.818;2.322;2023-04-20T12:03:10;100450.31;;;15.25;24.83
22000;BME280;11164;48.818;2.322;2023-04-20T12:05:36;100456.47;;;15.32;24.82
22000;BME280;11164;48.818;2.322;2023-04-20T12:08:01;100449.53;;;14.76;25.64
22000;BME280;11164;48.818;2.322;2023-04-20T12:10:26;100438.69;;;15.06;25.28
22000;BME280;11164;48.818;2.322;2023-04-20T12:12:52;100425.88;;;14.34;25.89
22000;BME280;11164;48.818;2.322;2023-04-20T12:15:17;100433.94;;;14.41;25.92
22000;BME280;11164;48.818;2.322;2023-04-20T12:17:43;100440.25;;;15.14;25.34
22000;BME280;11164;48.818;2.322;2023-04-20T12:20:08;100435.25;;;14.99;25.56
22000;BME280;11164;48.818;2.322;2023-04-20T12:22:36;100435.19;;;15.29;25.30
22000;BME280;11164;48.818;2.322;2023-04-20T12:25:02;100420.13;;;14.91;25.56
22000;BME280;11164;48.818;2.322;2023-04-20T12:27:28;100423.25;;;15.18;25.11
22000;BME280;11164;48.818;2.322;2023-04-20T12:29:53;100425.22;;;14.99;25.59
22000;BME280;11164;48.818;2.322;2023-04-20T12:32:18;100421.16;;;14.90;25.55
22000;BME280;11164;48.818;2.322;2023-04-20T12:34:44;100415.59;;;15.51;24.90
22000;BME280;11164;48.818;2.322;2023-04-20T12:37:09;100433.44;;;16.06;24.75
22000;BME280;11164;48.818;2.322;2023-04-20T12:39:35;100419.22;;;16.56;24.48
22000;BME280;11164;48.818;2.322;2023-04-20T12:42:00;100438.69;;;16.36;24.64
22000;BME280;11164;48.818;2.322;2023-04-20T12:44:26;100440.78;;;15.82;25.06
22000;BME280;11164;48.818;2.322;2023-04-20T12:46:52;100437.78;;;15.24;25.68